createdAt,value
2019-03-01T00:01:28.687Z,27.00
2019-03-01T00:04:29.971Z,24.27
2019-03-01T00:07:57.750Z,24.97
2019-03-01T00:11:07.151Z,25.53
2019-03-01T00:14:24.420Z,21.97
2019-03-01T00:17:54.103Z,25.87
2019-03-01T00:20:51.643Z,23.27
2019-03-01T00:23:54.899Z,23.30
2019-03-01T00:27:20.787Z,26.80
2019-03-01T00:30:45.663Z,23.60
2019-03-01T00:34:05.243Z,21.63
2019-03-01T00:37:22.142Z,25.37
2019-03-01T00:40:43.708Z,22.27
2019-03-01T00:44:11.007Z,24.47
2019-03-01T00:46:58.750Z,28.33
2019-03-01T00:49:47.072Z,23.87
2019-03-01T00:52:35.171Z,24.13
2019-03-01T00:55:23.891Z,23.77
2019-03-01T00:58:12.154Z,27.50
2019-03-01T01:01:00.503Z,25.87
2019-03-01T01:03:49.163Z,26.20
2019-03-01T01:06:36.965Z,26.90
2019-03-01T01:09:24.748Z,28.70
2019-03-01T01:12:13.347Z,27.30
2019-03-01T01:15:01.078Z,29.40
2019-03-01T01:17:49.018Z,26.23
2019-03-01T01:20:37.638Z,29.23
2019-03-01T01:23:25.623Z,24.20
2019-03-01T01:26:14.209Z,27.80
2019-03-01T01:29:02.824Z,26.93
2019-03-01T01:31:50.838Z,31.80
2019-03-01T01:34:38.771Z,26.93
2019-03-01T01:37:27.326Z,26.73
2019-03-01T01:40:15.185Z,30.03
2019-03-01T01:43:03.439Z,25.67
2019-03-01T01:45:51.844Z,24.87
2019-03-01T01:48:40.391Z,27.63
2019-03-01T01:51:28.803Z,26.30
2019-03-01T01:54:17.525Z,28.00
2019-03-01T01:57:05.655Z,28.87
2019-03-01T01:59:53.214Z,30.53
2019-03-01T02:02:41.680Z,31.23
2019-03-01T02:05:30.295Z,34.13
2019-03-01T02:08:18.343Z,31.93
2019-03-01T02:11:06.408Z,31.73
2019-03-01T02:13:54.426Z,32.80
2019-03-01T02:16:43.037Z,34.97
2019-03-01T02:19:30.610Z,44.97
2019-03-01T02:22:18.683Z,39.10
2019-03-01T02:25:08.504Z,41.03
2019-03-01T02:27:56.790Z,39.30
2019-03-01T02:30:45.666Z,46.43
2019-03-01T02:33:34.058Z,41.07
2019-03-01T02:36:21.791Z,39.77
2019-03-01T02:39:10.163Z,41.20
2019-03-01T02:41:58.531Z,39.00
2019-03-01T02:44:46.547Z,42.47
2019-03-01T02:47:34.436Z,45.43
2019-03-01T02:50:22.534Z,43.73
2019-03-01T02:53:11.311Z,45.10
2019-03-01T02:55:59.802Z,45.13
2019-03-01T02:58:47.976Z,44.73
2019-03-01T03:01:36.252Z,42.40
2019-03-01T03:04:24.708Z,48.60
2019-03-01T03:07:21.079Z,43.80
2019-03-01T03:10:09.107Z,41.97
2019-03-01T03:13:02.667Z,44.77
2019-03-01T03:15:52.812Z,40.47
2019-03-01T03:18:40.876Z,45.67
2019-03-01T03:21:29.170Z,40.97
2019-03-01T03:24:16.708Z,41.83
2019-03-01T03:27:04.792Z,46.83
2019-03-01T03:29:53.343Z,45.83
2019-03-01T03:32:41.114Z,46.53
2019-03-01T03:35:29.088Z,46.30
2019-03-01T03:38:17.628Z,47.47
2019-03-01T03:41:06.369Z,48.43
2019-03-01T03:43:54.568Z,49.27
2019-03-01T03:46:42.052Z,51.70
2019-03-01T03:49:30.340Z,49.70
2019-03-01T03:52:18.931Z,47.67
2019-03-01T03:55:08.528Z,43.50
2019-03-01T03:57:56.184Z,45.57
2019-03-01T04:00:43.913Z,50.43
2019-03-01T04:03:32.313Z,52.57
2019-03-01T04:06:20.546Z,56.00
2019-03-01T04:09:09.082Z,52.80
2019-03-01T04:11:57.148Z,51.73
2019-03-01T04:14:45.688Z,51.07
2019-03-01T04:17:33.426Z,46.70
2019-03-01T04:20:21.633Z,50.73
2019-03-01T04:23:10.091Z,50.20
2019-03-01T04:25:57.659Z,45.50
2019-03-01T04:28:45.979Z,49.97
2019-03-01T04:31:33.775Z,51.13
2019-03-01T04:34:22.216Z,45.13
2019-03-01T04:37:09.783Z,45.00
2019-03-01T04:39:58.075Z,51.43
2019-03-01T04:42:46.019Z,52.80
2019-03-01T04:45:33.753Z,46.93
2019-03-01T04:48:22.083Z,51.67
2019-03-01T04:51:10.520Z,49.60
2019-03-01T04:53:58.544Z,52.80
2019-03-01T04:56:47.175Z,47.53
2019-03-01T04:59:34.892Z,52.37
2019-03-01T05:02:23.072Z,50.80
2019-03-01T05:05:11.532Z,50.13
2019-03-01T05:07:59.484Z,52.40
2019-03-01T05:10:47.663Z,52.10
2019-03-01T05:13:35.847Z,51.20
2019-03-01T05:16:24.407Z,52.17
2019-03-01T05:19:12.580Z,53.70
2019-03-01T05:22:00.584Z,54.67
2019-03-01T05:24:49.136Z,59.50
2019-03-01T05:27:37.790Z,60.07
2019-03-01T05:30:26.255Z,53.37
2019-03-01T05:33:14.751Z,60.83
2019-03-01T05:36:02.790Z,60.97
2019-03-01T05:38:51.275Z,62.23
2019-03-01T05:41:39.650Z,55.40
2019-03-01T05:44:28.221Z,57.70
2019-03-01T05:47:15.690Z,58.27
2019-03-01T05:50:06.993Z,53.27
2019-03-01T05:52:54.145Z,62.67
2019-03-01T05:55:41.723Z,56.53
2019-03-01T05:58:38.667Z,61.53
2019-03-01T06:01:31.103Z,59.63
2019-03-01T06:04:32.092Z,57.30
2019-03-01T06:08:03.460Z,58.80
2019-03-01T06:11:12.956Z,59.80
2019-03-01T06:14:27.206Z,61.47
2019-03-01T06:17:50.244Z,60.93
2019-03-01T06:21:02.246Z,61.40
2019-03-01T06:24:12.692Z,60.77
2019-03-01T06:27:33.616Z,66.10
2019-03-01T06:30:33.536Z,60.33
2019-03-01T06:34:01.474Z,64.67
2019-03-01T06:37:24.618Z,52.23
2019-03-01T06:40:50.450Z,63.70
2019-03-01T06:43:52.667Z,56.03
2019-03-01T06:46:58.950Z,57.90
2019-03-01T06:49:58.080Z,55.97
2019-03-01T06:52:46.804Z,55.67
2019-03-01T06:56:02.568Z,51.97
2019-03-01T06:58:52.935Z,53.20
2019-03-01T07:01:47.551Z,52.93
2019-03-01T07:04:35.732Z,52.90
2019-03-01T07:07:24.115Z,48.80
2019-03-01T07:10:14.157Z,52.13
2019-03-01T07:13:01.684Z,48.30
2019-03-01T07:15:49.859Z,53.87
2019-03-01T07:18:37.769Z,49.10
2019-03-01T07:21:25.468Z,52.63
2019-03-01T07:24:14.098Z,60.50
2019-03-01T07:27:02.435Z,65.57
2019-03-01T07:29:50.558Z,67.80
2019-03-01T07:32:38.508Z,63.40
2019-03-01T07:35:26.991Z,80.20
2019-03-01T07:38:15.146Z,64.37
2019-03-01T07:41:03.772Z,69.30
2019-03-01T07:43:51.558Z,65.63
2019-03-01T07:46:39.671Z,65.00
2019-03-01T07:49:27.949Z,71.43
2019-03-01T07:52:16.225Z,62.13
2019-03-01T07:55:05.220Z,61.37
2019-03-01T07:57:53.087Z,62.00
2019-03-01T08:00:41.442Z,60.20
2019-03-01T08:03:29.495Z,60.33
2019-03-01T08:06:17.093Z,67.27
2019-03-01T08:09:12.792Z,66.80
2019-03-01T08:12:03.668Z,68.43
2019-03-01T08:14:50.047Z,65.03
2019-03-01T08:17:38.486Z,75.60
2019-03-01T08:20:26.524Z,71.50
2019-03-01T08:23:14.515Z,76.07
2019-03-01T08:26:03.617Z,87.57
2019-03-01T08:28:54.746Z,101.97
2019-03-01T08:31:41.831Z,116.73
2019-03-01T08:34:29.388Z,114.87
2019-03-01T08:37:17.565Z,118.30
2019-03-01T08:40:11.497Z,112.63
2019-03-01T08:42:59.168Z,138.73
2019-03-01T08:45:48.105Z,124.70
2019-03-01T08:48:35.951Z,129.63
2019-03-01T08:51:26.586Z,128.07
2019-03-01T08:54:14.468Z,140.83
2019-03-01T08:57:02.927Z,130.97
2019-03-01T08:59:50.815Z,140.40
2019-03-01T09:02:39.077Z,140.43
2019-03-01T09:05:27.301Z,153.20
2019-03-01T09:08:15.646Z,140.17
2019-03-01T09:11:05.535Z,143.50
2019-03-01T09:13:53.713Z,150.60
2019-03-01T09:16:42.452Z,144.70
2019-03-01T09:19:30.943Z,145.30
2019-03-01T09:22:19.411Z,155.77
2019-03-01T09:25:08.846Z,150.53
2019-03-01T09:27:57.664Z,156.53
2019-03-01T09:30:46.258Z,147.07
2019-03-01T09:33:33.859Z,149.20
2019-03-01T09:36:29.739Z,153.70
2019-03-01T09:39:19.025Z,158.87
2019-03-01T09:42:07.530Z,153.33
2019-03-01T09:44:55.158Z,154.43
2019-03-01T09:47:43.341Z,150.07
2019-03-01T09:50:34.646Z,146.47
2019-03-01T09:53:21.716Z,139.27
2019-03-01T09:56:12.966Z,149.80
2019-03-01T09:59:00.451Z,139.27
2019-03-01T10:01:48.063Z,150.43
2019-03-01T10:04:36.036Z,138.53
2019-03-01T10:07:23.989Z,138.57
2019-03-01T10:10:13.159Z,134.90
2019-03-01T10:13:01.659Z,135.20
2019-03-01T10:15:49.360Z,132.03
2019-03-01T10:18:37.640Z,139.70
2019-03-01T10:21:26.368Z,137.27
2019-03-01T10:24:14.173Z,138.40
2019-03-01T10:27:03.106Z,133.80
2019-03-01T10:29:51.161Z,139.73
2019-03-01T10:32:39.449Z,139.63
2019-03-01T10:35:27.613Z,143.07
2019-03-01T10:38:16.027Z,134.20
2019-03-01T10:41:04.603Z,136.33
2019-03-01T10:43:53.099Z,126.77
2019-03-01T10:46:40.725Z,127.93
2019-03-01T10:49:29.051Z,129.10
2019-03-01T10:52:16.720Z,133.13
2019-03-01T10:55:04.834Z,136.03
2019-03-01T10:57:52.763Z,148.70
2019-03-01T11:00:41.434Z,138.17
2019-03-01T11:03:29.023Z,135.27
2019-03-01T11:06:17.395Z,131.03
2019-03-01T11:09:07.447Z,140.57
2019-03-01T11:11:55.936Z,140.73
2019-03-01T11:14:44.457Z,132.27
2019-03-01T11:17:32.528Z,130.80
2019-03-01T11:20:20.711Z,133.37
2019-03-01T11:23:09.023Z,127.33
2019-03-01T11:25:57.171Z,122.07
2019-03-01T11:28:45.639Z,109.43
2019-03-01T11:31:33.863Z,119.10
2019-03-01T11:34:22.042Z,110.40
2019-03-01T11:37:10.067Z,96.60
2019-03-01T11:39:58.667Z,95.30
2019-03-01T11:42:46.794Z,106.30
2019-03-01T11:45:34.698Z,101.90
2019-03-01T11:48:23.144Z,104.53
2019-03-01T11:51:11.724Z,94.40
2019-03-01T11:54:00.260Z,95.17
2019-03-01T11:56:48.319Z,88.90
2019-03-01T11:59:36.499Z,76.00
2019-03-01T12:02:25.155Z,70.80
2019-03-01T12:05:13.463Z,47.77
2019-03-01T12:08:01.699Z,56.00
2019-03-01T12:10:49.642Z,54.43
2019-03-01T12:13:37.939Z,59.43
2019-03-01T12:16:26.369Z,49.77
2019-03-01T12:19:14.837Z,44.57
2019-03-01T12:22:03.083Z,51.10
2019-03-01T12:24:50.707Z,48.10
2019-03-01T12:27:39.054Z,50.27
2019-03-01T12:30:27.608Z,42.30
2019-03-01T12:33:15.159Z,44.30
2019-03-01T12:36:03.767Z,35.63
2019-03-01T12:38:52.303Z,35.60
2019-03-01T12:41:40.582Z,32.07
2019-03-01T12:44:28.501Z,30.90
2019-03-01T12:47:16.687Z,34.10
2019-03-01T12:50:05.663Z,31.73
2019-03-01T12:52:54.172Z,32.13
2019-03-01T12:55:42.570Z,37.57
2019-03-01T12:58:30.778Z,39.87
2019-03-01T13:01:18.710Z,44.47
2019-03-01T13:04:07.139Z,40.17
2019-03-01T13:06:55.044Z,39.27
2019-03-01T13:09:42.959Z,39.77
2019-03-01T13:12:31.126Z,45.60
2019-03-01T13:15:19.370Z,42.23
2019-03-01T13:18:10.323Z,51.57
2019-03-01T13:20:57.561Z,41.40
2019-03-01T13:23:46.016Z,38.83
2019-03-01T13:26:34.384Z,39.33
2019-03-01T13:29:23.314Z,37.97
2019-03-01T13:32:11.664Z,37.50
2019-03-01T13:35:00.038Z,38.63
2019-03-01T13:37:48.075Z,36.23
2019-03-01T13:40:35.871Z,40.23
2019-03-01T13:43:27.395Z,32.00
2019-03-01T13:46:13.691Z,36.07
2019-03-01T13:49:01.863Z,26.90
2019-03-01T13:51:52.971Z,30.40
2019-03-01T13:54:42.370Z,30.03
2019-03-01T13:57:29.170Z,29.10
2019-03-01T14:00:18.347Z,25.27
2019-03-01T14:03:06.280Z,23.73
2019-03-01T14:05:54.701Z,27.50
2019-03-01T14:08:44.415Z,28.27
2019-03-01T14:11:32.706Z,27.17
2019-03-01T14:14:26.588Z,27.83
2019-03-01T14:17:10.275Z,25.23
2019-03-01T14:19:58.870Z,24.70
2019-03-01T14:22:47.946Z,30.00
2019-03-01T14:25:38.606Z,28.53
2019-03-01T14:28:26.608Z,29.40
2019-03-01T14:31:14.999Z,30.80
2019-03-01T14:34:02.515Z,33.70
2019-03-01T14:36:50.992Z,32.57
2019-03-01T14:39:41.723Z,60.97
2019-03-01T14:42:28.792Z,24.57
2019-03-01T14:45:19.271Z,25.23
2019-03-01T14:48:08.673Z,28.30
2019-03-01T14:50:56.355Z,26.70
2019-03-01T14:53:44.866Z,30.13
2019-03-01T14:56:36.828Z,30.40
2019-03-01T14:59:54.066Z,26.90
2019-03-01T15:02:56.099Z,32.27
2019-03-01T15:05:44.187Z,32.37
2019-03-01T15:08:31.879Z,33.17
2019-03-01T15:11:21.766Z,28.53
2019-03-01T15:14:13.411Z,36.10
2019-03-01T15:16:59.775Z,29.90
2019-03-01T15:19:47.898Z,29.73
2019-03-01T15:22:36.653Z,27.73
2019-03-01T15:25:24.774Z,35.57
2019-03-01T15:28:13.212Z,28.50
2019-03-01T15:31:01.384Z,30.80
2019-03-01T15:33:49.706Z,31.53
2019-03-01T15:36:37.716Z,33.97
2019-03-01T15:39:25.874Z,37.43
2019-03-01T15:42:17.432Z,33.50
2019-03-01T15:45:05.039Z,39.73
2019-03-01T15:47:53.429Z,28.53
2019-03-01T15:50:41.740Z,31.80
2019-03-01T15:53:29.864Z,33.60
2019-03-01T15:56:18.219Z,32.30
2019-03-01T15:59:09.669Z,32.80
2019-03-01T16:01:56.291Z,34.83
2019-03-01T16:04:44.885Z,35.13
2019-03-01T16:07:33.481Z,27.43
2019-03-01T16:10:22.352Z,35.90
2019-03-01T16:13:12.204Z,28.80
2019-03-01T16:16:00.715Z,35.53
2019-03-01T16:18:48.925Z,25.93
2019-03-01T16:21:39.788Z,26.53
2019-03-01T16:24:26.508Z,23.40
2019-03-01T16:27:15.332Z,24.87
2019-03-01T16:30:04.123Z,25.30
2019-03-01T16:32:52.547Z,27.77
2019-03-01T16:35:40.990Z,21.50
2019-03-01T16:38:29.450Z,20.20
2019-03-01T16:41:17.346Z,21.93
2019-03-01T16:44:06.989Z,17.57
2019-03-01T16:46:55.084Z,20.63
2019-03-01T16:49:43.318Z,17.43
2019-03-01T16:52:31.199Z,19.57
2019-03-01T16:55:19.280Z,20.00
2019-03-01T16:58:07.453Z,14.60
2019-03-01T17:00:55.658Z,15.50
2019-03-01T17:03:44.148Z,15.20
2019-03-01T17:06:32.311Z,17.63
2019-03-01T17:09:21.194Z,17.00
2019-03-01T17:12:08.983Z,17.80
2019-03-01T17:14:57.779Z,13.43
2019-03-01T17:17:46.416Z,15.90
2019-03-01T17:20:37.661Z,13.63
2019-03-01T17:23:24.722Z,10.03
2019-03-01T17:26:12.727Z,10.50
2019-03-01T17:29:03.087Z,11.80
2019-03-01T17:31:50.627Z,12.17
2019-03-01T17:34:38.836Z,12.40
2019-03-01T17:37:28.845Z,11.37
2019-03-01T17:40:17.387Z,10.73
2019-03-01T17:43:05.231Z,13.83
2019-03-01T17:45:54.386Z,12.50
2019-03-01T17:48:43.101Z,15.63
2019-03-01T17:51:31.460Z,16.30
2019-03-01T17:54:22.229Z,12.20
2019-03-01T17:57:09.571Z,11.53
2019-03-01T17:59:57.982Z,12.07
2019-03-01T18:02:48.658Z,11.50
2019-03-01T18:05:37.058Z,11.80
2019-03-01T18:08:25.506Z,10.83
2019-03-01T18:11:13.500Z,15.17
2019-03-01T18:14:02.203Z,9.70
2019-03-01T18:16:49.802Z,11.77
2019-03-01T18:19:38.336Z,9.93
2019-03-01T18:22:27.561Z,11.10
2019-03-01T18:25:16.408Z,9.97
2019-03-01T18:28:05.287Z,10.20
2019-03-01T18:30:56.192Z,13.40
2019-03-01T18:33:43.452Z,13.00
2019-03-01T18:36:32.464Z,13.20
2019-03-01T18:39:19.986Z,10.83
2019-03-01T18:42:08.104Z,13.63
2019-03-01T18:44:56.259Z,11.50
2019-03-01T18:47:44.418Z,12.97
2019-03-01T18:50:32.731Z,10.87
2019-03-01T18:53:25.056Z,8.50
2019-03-01T18:56:12.315Z,8.67
2019-03-01T18:59:00.987Z,13.77
2019-03-01T19:01:49.387Z,12.37
2019-03-01T19:04:37.815Z,10.43
2019-03-01T19:07:27.494Z,7.93
2019-03-01T19:10:16.135Z,14.30
2019-03-01T19:13:05.103Z,11.93
2019-03-01T19:15:54.502Z,9.87
2019-03-01T19:18:43.447Z,11.40
2019-03-01T19:21:31.178Z,9.00
2019-03-01T19:24:19.155Z,8.43
2019-03-01T19:27:09.308Z,10.70
2019-03-01T19:29:57.091Z,10.03
2019-03-01T19:32:45.534Z,7.20
2019-03-01T19:35:33.767Z,10.87
2019-03-01T19:38:25.179Z,6.97
2019-03-01T19:41:11.778Z,10.37
2019-03-01T19:44:00.299Z,15.80
2019-03-01T19:46:51.384Z,10.43
2019-03-01T19:49:38.623Z,7.80
2019-03-01T19:52:26.887Z,7.17
2019-03-01T19:55:14.875Z,8.27
2019-03-01T19:58:03.446Z,10.20
2019-03-01T20:00:51.407Z,5.97
2019-03-01T20:03:42.559Z,5.37
2019-03-01T20:06:29.560Z,7.53
2019-03-01T20:09:17.842Z,24.53
2019-03-01T20:12:05.645Z,9.87
2019-03-01T20:14:53.823Z,11.23
2019-03-01T20:17:44.619Z,8.50
2019-03-01T20:20:33.353Z,8.10
2019-03-01T20:23:22.395Z,5.80
2019-03-01T20:26:10.804Z,7.83
2019-03-01T20:28:58.750Z,7.30
2019-03-01T20:31:47.059Z,7.87
2019-03-01T20:34:37.948Z,6.97
2019-03-01T20:37:27.591Z,6.70
2019-03-01T20:40:14.783Z,10.17
2019-03-01T20:43:06.667Z,7.50
2019-03-01T20:45:52.190Z,8.10
2019-03-01T20:48:40.191Z,7.53
2019-03-01T20:51:28.869Z,9.03
2019-03-01T20:54:17.159Z,8.77
2019-03-01T20:57:05.405Z,8.17
2019-03-01T20:59:53.794Z,9.27
2019-03-01T21:02:42.078Z,7.73
2019-03-01T21:05:30.559Z,10.97
2019-03-01T21:08:18.422Z,8.30
2019-03-01T21:11:06.838Z,13.20
2019-03-01T21:13:55.055Z,9.13
2019-03-01T21:16:44.891Z,11.63
2019-03-01T21:19:32.258Z,12.53
2019-03-01T21:22:20.223Z,15.73
2019-03-01T21:25:09.763Z,11.23
2019-03-01T21:28:00.915Z,24.93
2019-03-01T21:30:48.039Z,16.33
2019-03-01T21:33:36.702Z,13.40
2019-03-01T21:36:26.249Z,11.37
2019-03-01T21:39:14.119Z,11.73
2019-03-01T21:42:02.497Z,12.23
2019-03-01T21:44:50.630Z,13.60
2019-03-01T21:47:39.003Z,11.70
2019-03-01T21:50:27.267Z,13.30
2019-03-01T21:53:15.531Z,14.80
2019-03-01T21:56:04.619Z,15.77
2019-03-01T21:58:53.267Z,17.13
2019-03-01T22:01:42.417Z,17.37
2019-03-01T22:04:30.127Z,17.03
2019-03-01T22:07:18.207Z,17.97
2019-03-01T22:10:07.291Z,19.10
2019-03-01T22:12:56.814Z,19.60
2019-03-01T22:15:44.406Z,15.90
2019-03-01T22:18:32.632Z,17.00
2019-03-01T22:21:22.848Z,17.80
2019-03-01T22:24:11.287Z,19.80
2019-03-01T22:26:59.539Z,19.00
2019-03-01T22:29:48.481Z,19.27
2019-03-01T22:32:37.022Z,20.10
2019-03-01T22:35:25.292Z,24.00
2019-03-01T22:38:13.794Z,20.77
2019-03-01T22:41:03.943Z,22.63
2019-03-01T22:43:51.030Z,22.17
2019-03-01T22:46:38.867Z,25.97
2019-03-01T22:49:28.641Z,28.50
2019-03-01T22:52:17.119Z,28.50
2019-03-01T22:55:06.036Z,30.20
2019-03-01T22:57:57.690Z,30.93
2019-03-01T23:01:17.864Z,37.90
2019-03-01T23:04:06.727Z,37.10
2019-03-01T23:06:54.611Z,38.67
2019-03-01T23:09:46.397Z,36.70
2019-03-01T23:12:32.495Z,29.93
2019-03-01T23:15:20.101Z,32.77
2019-03-01T23:18:08.185Z,35.27
2019-03-01T23:20:57.706Z,33.90
2019-03-01T23:23:46.111Z,30.93
2019-03-01T23:26:34.553Z,30.70
2019-03-01T23:29:22.319Z,34.70
2019-03-01T23:32:11.894Z,30.67
2019-03-01T23:35:00.094Z,33.23
2019-03-01T23:37:48.519Z,31.97
2019-03-01T23:40:36.911Z,43.43
2019-03-01T23:43:27.586Z,30.13
2019-03-01T23:46:15.023Z,30.83
2019-03-01T23:49:06.482Z,34.63
2019-03-01T23:51:53.703Z,33.30
2019-03-01T23:54:44.232Z,29.87
2019-03-01T23:57:31.974Z,30.83
